Time;durP1;ratioP1;P1;durP2;ratioP2;P2;SDS_P1;SDS_P2;PMS_P1;PMS_P2;Temp;Humidity;BMP_temperature;BMP_pressure;BME280_temperature;BME280_humidity;BME280_pressure;Samples;Min_cycle;Max_cycle;Signal;HPM_P1;HPM_P2
2022/08/18 00:02:13;;;;;;;6.55;3.72;;;;;;;25.14;50.49;99843.44;6272440;22;20081;-74
2022/08/18 00:04:39;;;;;;;4.88;3.55;;;;;;;25.00;50.95;99825.56;6272486;22;20412;-75
2022/08/18 00:07:07;;;;;;;8.68;4.63;;;;;;;24.94;51.22;99820.19;6272686;22;20019;-75
2022/08/18 00:09:35;;;;;;;9.13;4.40;;;;;;;24.94;51.11;99826.50;6272083;22;20004;-75
2022/08/18 00:12:04;;;;;;;6.15;4.18;;;;;;;24.88;51.24;99829.38;6271916;22;20004;-74
2022/08/18 00:14:30;;;;;;;9.77;3.88;;;;;;;24.75;51.33;99815.88;6271795;22;20007;-74
2022/08/18 00:16:56;;;;;;;8.55;3.90;;;;;;;24.73;51.65;99818.84;6272515;22;20026;-74
2022/08/18 00:19:23;;;;;;;8.10;4.45;;;;;;;24.60;52.10;99807.28;6271817;22;20488;-74
2022/08/18 00:21:48;;;;;;;6.68;4.22;;;;;;;24.57;52.16;99814.06;6272035;22;20011;-74
2022/08/18 00:24:14;;;;;;;6.45;4.03;;;;;;;24.44;52.35;99806.88;6272289;22;20003;-74
2022/08/18 00:26:39;;;;;;;5.10;4.03;;;;;;;24.47;52.50;99826.69;6271912;22;20011;-74
2022/08/18 00:29:05;;;;;;;7.47;3.85;;;;;;;24.38;53.12;99821.53;6272389;22;20004;-74
2022/08/18 00:31:32;;;;;;;6.90;4.22;;;;;;;24.32;53.59;99817.00;6270654;22;20003;-75
2022/08/18 00:33:59;;;;;;;8.73;4.68;;;;;;;24.28;53.59;99828.69;6269994;22;20006;-75
2022/08/18 00:36:25;;;;;;;5.90;4.13;;;;;;;24.21;53.74;99836.16;6271375;22;20011;-74
2022/08/18 00:38:51;;;;;;;8.60;3.72;;;;;;;24.16;53.76;99842.38;6271893;22;20088;-75
2022/08/18 00:41:17;;;;;;;10.73;4.40;;;;;;;24.09;53.97;99836.13;6269885;22;20031;-75
2022/08/18 00:43:44;;;;;;;8.45;4.38;;;;;;;24.04;54.10;99830.53;6270253;22;20491;-75
2022/08/18 00:46:20;;;;;;;5.82;4.32;;;;;;;23.99;54.11;99822.16;6272238;22;20011;-75
2022/08/18 00:48:46;;;;;;;8.48;4.20;;;;;;;23.96;54.40;99819.06;6271777;22;20440;-75
2022/08/18 00:51:19;;;;;;;8.68;4.82;;;;;;;23.93;54.91;99825.78;6270393;22;20008;-75
2022/08/18 00:54:00;;;;;;;13.68;4.90;;;;;;;23.73;55.50;99791.56;6271707;22;20015;-74
2022/08/18 00:56:32;;;;;;;8.73;4.28;;;;;;;23.73;55.90;99805.25;6271620;22;20019;-75
2022/08/18 00:59:08;;;;;;;12.95;5.30;;;;;;;23.78;55.74;99830.88;6271725;22;20010;-74
2022/08/18 01:01:35;;;;;;;11.73;4.78;;;;;;;23.60;56.15;99800.75;6271900;22;20085;-74
2022/08/18 01:04:23;;;;;;;30.77;6.45;;;;;;;23.71;56.96;99830.13;6272301;22;20008;-74
2022/08/18 01:07:04;;;;;;;27.23;5.75;;;;;;;23.61;57.02;99818.03;6270572;22;20015;-74
2022/08/18 01:09:29;;;;;;;16.95;4.95;;;;;;;23.60;57.27;99825.41;6271702;22;20137;-75
2022/08/18 01:11:55;;;;;;;15.02;5.13;;;;;;;23.51;57.81;99823.22;6271902;22;20074;-74
2022/08/18 01:14:21;;;;;;;16.83;4.35;;;;;;;23.40;57.81;99813.88;6272069;22;20010;-74
2022/08/18 01:22:48;;;;;;;11.55;4.55;;;;;;;23.35;58.42;99832.91;6271559;22;20014;-74
2022/08/18 01:28:04;;;;;;;11.50;4.55;;;;;;;23.24;59.65;99841.00;6271999;22;20022;-74
2022/08/18 01:30:33;;;;;;;5.93;4.57;;;;;;;23.22;59.83;99840.38;6270095;22;20039;-74
2022/08/18 01:32:58;;;;;;;10.82;4.75;;;;;;;23.12;60.04;99829.94;6271865;22;20067;-74
2022/08/18 01:35:25;;;;;;;5.75;4.40;;;;;;;23.05;60.46;99825.63;6271350;22;20023;-74
2022/08/18 01:37:53;;;;;;;9.43;4.65;;;;;;;23.06;60.32;99840.97;6271952;22;20022;-74
2022/08/18 01:40:21;;;;;;;7.15;4.50;;;;;;;23.01;60.22;99838.06;6271733;22;20030;-74
2022/08/18 01:42:47;;;;;;;8.38;4.47;;;;;;;22.79;60.56;99810.31;6271700;22;20211;-74
2022/08/18 01:45:15;;;;;;;8.75;4.80;;;;;;;22.78;61.29;99822.31;6271634;22;20483;-74
2022/08/18 01:47:42;;;;;;;10.52;4.85;;;;;;;22.85;61.29;99838.66;6271933;22;20034;-74
2022/08/18 01:50:10;;;;;;;9.13;4.47;;;;;;;22.72;61.21;99827.84;6272046;22;20034;-74
2022/08/18 01:52:35;;;;;;;10.77;4.45;;;;;;;22.75;61.26;99841.91;6272166;22;20425;-74
2022/08/18 01:55:02;;;;;;;10.52;4.72;;;;;;;22.60;61.88;99818.72;6272268;22;20019;-74
2022/08/18 01:57:28;;;;;;;8.98;4.90;;;;;;;22.67;62.35;99836.75;6272063;22;20012;-74
2022/08/18 01:59:53;;;;;;;10.52;5.20;;;;;;;22.54;62.60;99825.94;6271819;22;20082;-74
2022/08/18 02:02:23;;;;;;;10.88;4.85;;;;;;;22.60;62.71;99838.69;6271462;22;20539;-74
2022/08/18 02:04:53;;;;;;;9.15;4.55;;;;;;;22.53;63.14;99829.69;6270394;22;20095;-74
2022/08/18 02:07:19;;;;;;;7.57;4.78;;;;;;;22.45;62.93;99832.69;6269860;22;20012;-74
2022/08/18 02:09:45;;;;;;;8.48;4.45;;;;;;;22.38;63.21;99827.25;6270349;22;20011;-74
2022/08/18 02:12:12;;;;;;;7.65;4.85;;;;;;;22.44;63.31;99836.47;6270418;22;19999;-74
2022/08/18 02:14:38;;;;;;;12.25;4.80;;;;;;;22.40;63.16;99846.16;6272117;22;20023;-74
2022/08/18 02:17:06;;;;;;;9.73;5.07;;;;;;;22.19;63.12;99817.31;6271630;22;20497;-74
2022/08/18 02:19:39;;;;;;;7.13;5.07;;;;;;;22.21;63.26;99826.13;6271507;22;20000;-74
2022/08/18 02:22:06;;;;;;;6.78;4.93;;;;;;;22.24;63.33;99843.97;6271731;22;20031;-74
2022/08/18 02:24:31;;;;;;;7.15;5.03;;;;;;;22.19;63.28;99847.38;6271398;22;20023;-74
2022/08/18 02:26:58;;;;;;;9.07;5.30;;;;;;;22.13;63.40;99839.22;6271638;22;20012;-74
2022/08/18 02:29:23;;;;;;;7.75;4.80;;;;;;;22.04;63.73;99843.28;6271544;22;20030;-74
2022/08/18 02:31:49;;;;;;;12.70;5.35;;;;;;;22.09;63.90;99854.41;6271460;22;20420;-74
2022/08/18 02:34:16;;;;;;;9.10;5.53;;;;;;;22.06;64.20;99858.38;6271984;22;20003;-74
2022/08/18 02:36:41;;;;;;;7.18;4.90;;;;;;;22.03;64.44;99855.28;6271390;22;20022;-74
2022/08/18 02:39:07;;;;;;;9.27;5.05;;;;;;;21.89;64.72;99837.28;6270453;22;20372;-74
2022/08/18 02:41:32;;;;;;;9.27;5.05;;;;;;;21.94;64.96;99853.84;6269494;22;20003;-74
2022/08/18 02:43:58;;;;;;;15.75;5.55;;;;;;;21.80;65.10;99822.22;6271703;22;20057;-74
2022/08/18 02:46:25;;;;;;;13.52;5.93;;;;;;;21.85;66.14;99842.34;6271456;22;20010;-74
2022/08/18 02:48:51;;;;;;;9.95;5.78;;;;;;;21.83;65.81;99839.00;6271464;22;20581;-74
2022/08/18 02:51:17;;;;;;;11.50;5.53;;;;;;;21.80;65.57;99844.88;6271859;22;20401;-74
2022/08/18 02:53:45;;;;;;;12.60;6.00;;;;;;;21.77;65.86;99847.22;6271800;22;20019;-74
2022/08/18 02:58:46;;;;;;;10.88;6.05;;;;;;;21.72;65.99;99850.56;6274383;22;20035;-74
2022/08/18 03:01:12;;;;;;;10.88;6.10;;;;;;;21.62;66.07;99838.44;6271741;22;19996;-74
2022/08/18 03:03:37;;;;;;;12.98;5.80;;;;;;;21.62;66.14;99846.63;6271606;22;20061;-74
2022/08/18 03:06:04;;;;;;;8.57;6.07;;;;;;;21.58;66.76;99850.84;6271144;22;20018;-74
2022/08/18 03:08:30;;;;;;;10.75;5.72;;;;;;;21.57;66.86;99846.47;6271758;22;20596;-74
2022/08/18 03:10:55;;;;;;;12.05;5.88;;;;;;;21.52;67.07;99841.66;6271853;22;20007;-74
2022/08/18 03:13:20;;;;;;;11.60;5.90;;;;;;;21.29;67.02;99805.00;6270755;22;20314;-74
2022/08/18 03:15:46;;;;;;;14.18;6.70;;;;;;;21.61;67.39;99866.81;6271368;22;20010;-74
2022/08/18 03:18:12;;;;;;;17.70;6.57;;;;;;;21.53;67.44;99850.66;6269655;22;20010;-74
2022/08/18 03:20:38;;;;;;;14.40;6.28;;;;;;;21.60;68.40;99865.13;6271497;22;20010;-74
2022/08/18 03:23:04;;;;;;;17.38;7.10;;;;;;;21.53;69.24;99853.38;6271309;22;20091;-74
2022/08/18 03:25:31;;;;;;;12.45;6.60;;;;;;;21.53;69.10;99861.56;6271343;22;20153;-74
2022/08/18 03:27:56;;;;;;;20.95;7.03;;;;;;;21.52;68.26;99863.47;6270833;22;20000;-74
2022/08/18 03:30:22;;;;;;;14.13;6.40;;;;;;;21.43;67.93;99872.94;6269150;22;20083;-74
2022/08/18 03:32:51;;;;;;;24.88;6.80;;;;;;;21.26;68.10;99852.66;6270488;22;20000;-74
2022/08/18 03:35:17;;;;;;;21.27;7.50;;;;;;;21.43;69.00;99889.31;6271313;22;20003;-74
2022/08/18 03:37:43;;;;;;;16.25;7.10;;;;;;;21.31;69.26;99877.38;6271166;22;20014;-74
2022/08/18 03:40:09;;;;;;;13.05;6.43;;;;;;;21.25;69.50;99874.69;6272078;22;20121;-74
2022/08/18 03:42:36;;;;;;;12.43;6.43;;;;;;;21.30;69.63;99886.63;6271227;22;20008;-74
2022/08/18 03:45:02;;;;;;;10.23;6.63;;;;;;;21.28;70.13;99890.63;6271868;22;20443;-74
2022/08/18 03:47:28;;;;;;;12.90;7.68;;;;;;;21.32;70.41;99894.59;6271123;22;20011;-74
2022/08/18 03:49:53;;;;;;;14.52;6.68;;;;;;;21.20;70.26;99874.47;6271416;22;20027;-74
2022/08/18 03:52:19;;;;;;;23.13;7.65;;;;;;;21.27;70.16;99889.78;6271399;22;20050;-74
2022/08/18 03:54:45;;;;;;;17.20;7.05;;;;;;;21.27;70.72;99888.94;6269094;22;20000;-74
2022/08/18 03:57:11;;;;;;;21.88;7.50;;;;;;;21.24;71.46;99889.38;6271562;22;20053;-74
2022/08/18 03:59:40;;;;;;;15.43;7.68;;;;;;;21.17;71.49;99885.81;6271432;22;20007;-74
2022/08/18 04:02:06;;;;;;;69.10;12.07;;;;;;;21.19;71.15;99886.47;6271408;22;20007;-74
2022/08/18 04:04:32;;;;;;;45.28;9.30;;;;;;;21.10;70.95;99874.94;6269658;22;20322;-74
2022/08/18 04:07:06;;;;;;;23.83;8.73;;;;;;;21.13;71.13;99888.16;6269559;22;20482;-67
2022/08/18 04:09:33;;;;;;;17.67;8.07;;;;;;;21.13;71.32;99884.56;6270914;22;20015;-67
2022/08/18 04:12:10;;;;;;;20.33;8.85;;;;;;;21.14;73.35;99891.69;6271823;22;20823;-67
2022/08/18 04:14:37;;;;;;;14.60;9.27;;;;;;;21.04;73.61;99880.38;6271588;22;19999;-67
2022/08/18 04:17:04;;;;;;;21.58;9.15;;;;;;;21.11;73.29;99895.69;6271597;22;20204;-67
2022/08/18 04:19:32;;;;;;;14.93;8.95;;;;;;;21.09;73.43;99888.78;6271265;22;20424;-67
2022/08/18 04:21:57;;;;;;;30.83;9.52;;;;;;;21.11;73.82;99898.44;6271214;22;20007;-67
2022/08/18 04:24:25;;;;;;;15.88;9.05;;;;;;;21.11;73.78;99895.69;6269240;22;20018;-67
2022/08/18 04:26:50;;;;;;;22.92;9.45;;;;;;;21.08;74.96;99881.63;6269575;22;20014;-67
2022/08/18 04:29:19;;;;;;;20.70;9.60;;;;;;;21.21;75.76;99897.97;6271156;22;19995;-67
2022/08/18 04:31:45;;;;;;;21.98;9.45;;;;;;;21.19;74.88;99887.31;6271093;22;20000;-67
2022/08/18 04:34:12;;;;;;;23.42;11.23;;;;;;;21.33;74.70;99899.84;6271172;22;20015;-67
2022/08/18 04:36:38;;;;;;;15.25;9.77;;;;;;;21.40;75.22;99902.53;6269181;22;20007;-67
2022/08/18 04:39:06;;;;;;;16.05;10.57;;;;;;;21.14;75.15;99853.50;6269502;22;20015;-67
2022/08/18 04:41:32;;;;;;;28.75;11.88;;;;;;;21.57;75.51;99903.78;6269490;22;20007;-67
2022/08/18 04:44:00;;;;;;;29.65;11.20;;;;;;;21.63;76.00;99901.00;6271056;22;20011;-67
2022/08/18 04:46:26;;;;;;;24.92;11.48;;;;;;;21.79;76.42;99907.91;6270881;22;20078;-67
2022/08/18 04:48:57;;;;;;;19.42;12.20;;;;;;;21.90;76.05;99899.03;6270779;22;20043;-67
2022/08/18 04:51:24;;;;;;;21.83;12.77;;;;;;;21.95;76.81;99891.03;6270612;22;20011;-67
2022/08/18 04:53:50;;;;;;;18.98;12.43;;;;;;;22.12;76.62;99903.13;6271107;22;20007;-67
2022/08/18 04:56:28;;;;;;;28.42;12.27;;;;;;;22.34;76.79;99904.44;6270984;22;20008;-67
2022/08/18 04:59:05;;;;;;;23.02;12.95;;;;;;;22.46;76.50;99890.91;6269055;22;20015;-67
2022/08/18 05:01:35;;;;;;;22.38;12.98;;;;;;;22.63;76.46;99892.09;6270628;22;20038;-67
2022/08/18 05:04:00;;;;;;;18.30;12.98;;;;;;;22.71;76.67;99876.25;6270845;22;20438;-67
2022/08/18 05:06:27;;;;;;;24.10;13.48;;;;;;;22.94;76.20;99881.91;6270731;22;20035;-67
2022/08/18 05:08:54;;;;;;;27.35;13.52;;;;;;;23.10;75.58;99888.72;6270780;22;20165;-67
2022/08/18 05:11:22;;;;;;;27.00;13.75;;;;;;;23.20;75.21;99881.66;6269175;22;20023;-67
2022/08/18 05:13:48;;;;;;;18.15;12.68;;;;;;;23.46;74.55;99894.25;6270649;22;20004;-67
2022/08/18 05:16:14;;;;;;;21.42;13.43;;;;;;;23.52;74.60;99871.44;6268698;22;20004;-67
2022/08/18 05:18:40;;;;;;;19.83;12.48;;;;;;;23.71;73.69;99881.31;6270355;22;20003;-67
2022/08/18 05:21:12;;;;;;;16.45;12.27;;;;;;;24.00;72.90;99886.00;6270817;22;20376;-67
2022/08/18 05:23:40;;;;;;;17.45;12.63;;;;;;;24.11;71.89;99868.78;6270436;22;19999;-67
2022/08/18 05:26:05;;;;;;;19.20;13.27;;;;;;;24.39;71.21;99883.56;6270564;22;20012;-67
2022/08/18 05:28:34;;;;;;;22.42;13.50;;;;;;;24.57;70.76;99888.13;6270120;22;20034;-67
2022/08/18 05:31:10;;;;;;;17.80;13.00;;;;;;;24.66;69.79;99877.69;6268529;22;20010;-67
2022/08/18 05:33:38;;;;;;;17.83;12.70;;;;;;;24.89;69.02;99891.41;6268305;22;20103;-67
2022/08/18 05:36:09;;;;;;;18.17;13.68;;;;;;;25.10;68.49;99896.31;6268628;22;20091;-67
2022/08/18 05:39:02;;;;;;;21.30;13.45;;;;;;;25.18;67.47;99876.75;6270384;22;20010;-67
2022/08/18 05:41:34;;;;;;;23.08;12.95;;;;;;;25.38;67.47;99886.31;6270189;22;20440;-67
2022/08/18 05:44:00;;;;;;;15.30;13.30;;;;;;;25.63;66.81;99894.28;6271312;22;20014;-74
2022/08/18 05:46:45;;;;;;;18.13;13.05;;;;;;;25.84;65.97;99890.88;6272006;22;20006;-75
2022/08/18 05:49:13;;;;;;;18.25;13.75;;;;;;;25.99;64.70;99892.03;6271407;22;20019;-74
2022/08/18 05:51:45;;;;;;;18.20;12.63;;;;;;;26.07;64.33;99877.06;6271381;22;20011;-74
2022/08/18 05:57:04;;;;;;;15.95;13.00;;;;;;;26.54;62.36;99889.50;6271581;22;20164;-74
2022/08/18 05:59:36;;;;;;;16.67;12.40;;;;;;;26.74;61.29;99897.31;6269667;22;20082;-74
2022/08/18 06:02:11;;;;;;;15.75;12.07;;;;;;;26.90;60.59;99897.31;6271502;22;20011;-74
2022/08/18 06:04:43;;;;;;;22.23;12.85;;;;;;;27.08;59.64;99897.03;6269806;22;20340;-74
2022/08/18 06:07:13;;;;;;;21.48;12.02;;;;;;;27.27;59.05;99905.91;6271253;22;20003;-74
2022/08/18 06:09:48;;;;;;;15.90;11.75;;;;;;;27.40;58.22;99887.09;6271543;22;20015;-74
2022/08/18 06:12:32;;;;;;;12.90;10.93;;;;;;;27.67;57.06;99892.69;6271023;22;20057;-74
2022/08/18 06:15:26;;;;;;;13.65;11.30;;;;;;;27.80;56.60;99882.13;6271148;22;20070;-74
2022/08/18 06:18:09;;;;;;;14.20;10.95;;;;;;;27.99;55.94;99890.94;6269881;22;20008;-71
2022/08/18 06:20:53;;;;;;;15.27;11.15;;;;;;;28.17;55.30;99891.41;6269536;22;20007;-71
2022/08/18 06:23:18;;;;;;;;;;;;;;;28.33;55.19;99896.00;6271334;22;20004;-71
2022/08/18 06:26:00;;;;;;;24.60;11.77;;;;;;;28.52;54.27;99889.06;6270754;22;20413;-72
2022/08/18 06:28:44;;;;;;;20.55;11.93;;;;;;;28.69;53.51;99896.41;6270974;22;20465;-71
2022/08/18 06:31:26;;;;;;;21.00;11.38;;;;;;;28.59;52.94;99846.63;6269148;22;20401;-72
2022/08/18 06:34:08;;;;;;;20.17;11.75;;;;;;;29.01;52.30;99897.22;6271168;22;20018;-72
2022/08/18 06:37:09;;;;;;;17.02;10.50;;;;;;;29.08;51.94;99886.81;6264566;22;20011;-72
2022/08/18 06:39:50;;;;;;;20.02;10.55;;;;;;;29.31;51.59;99900.22;6269239;22;20007;-72
2022/08/18 06:42:17;;;;;;;19.17;10.30;;;;;;;29.47;50.79;99902.00;6271217;22;20008;-72
2022/08/18 06:44:56;;;;;;;12.32;9.57;;;;;;;29.66;50.68;99912.34;6270161;22;20011;-72
2022/08/18 06:47:25;;;;;;;13.70;10.00;;;;;;;29.86;50.25;99915.19;6271387;22;20325;-72
2022/08/18 06:49:58;;;;;;;14.02;10.02;;;;;;;29.99;49.69;99911.94;6270386;22;20015;-72
2022/08/18 06:52:34;;;;;;;15.60;10.00;;;;;;;30.18;48.99;99901.28;6270898;22;20004;-72
2022/08/18 06:55:08;;;;;;;15.68;10.23;;;;;;;30.38;48.46;99904.94;6269392;22;20034;-72
2022/08/18 06:57:36;;;;;;;;;;;;;;;30.47;48.10;99906.03;6271632;22;20012;-72
2022/08/18 07:00:19;;;;;;;15.93;10.32;;;;;;;30.64;47.94;99903.03;6270769;22;19915;-71
2022/08/18 07:02:50;;;;;;;11.65;9.15;;;;;;;30.82;47.22;99896.16;6264773;22;20106;-71
2022/08/18 07:05:19;;;;;;;16.35;8.73;;;;;;;30.96;46.30;99895.31;6270086;22;20004;-72
2022/08/18 07:07:58;;;;;;;12.35;8.90;;;;;;;31.01;45.88;99884.22;6272004;22;20364;-73
2022/08/18 07:10:34;;;;;;;9.88;8.40;;;;;;;31.17;45.57;99880.31;6269825;22;20020;-72
2022/08/18 07:13:06;;;;;;;12.60;8.55;;;;;;;31.38;45.40;99884.75;6270931;22;19996;-72
2022/08/18 07:15:31;;;;;;;15.65;8.98;;;;;;;31.50;45.02;99873.38;6269855;22;20031;-72
2022/08/18 07:18:06;;;;;;;10.98;9.27;;;;;;;31.55;44.88;99871.41;6269577;22;20031;-72
2022/08/18 07:20:46;;;;;;;12.07;9.18;;;;;;;31.53;43.90;99858.94;6271455;22;20004;-72
2022/08/18 07:23:37;;;;;;;14.65;8.73;;;;;;;31.64;44.10;99872.47;6269390;22;20007;-72
2022/08/18 07:26:12;;;;;;;14.38;9.13;;;;;;;31.72;44.12;99873.84;6270825;22;19999;-72
2022/08/18 07:28:46;;;;;;;11.75;8.30;;;;;;;31.72;44.13;99871.06;6270890;22;20451;-72
2022/08/18 07:31:26;;;;;;;11.80;8.27;;;;;;;31.76;44.14;99875.75;6270546;22;20044;-72
2022/08/18 07:34:12;;;;;;;12.65;8.45;;;;;;;31.75;43.96;99876.88;6270656;22;20028;-72
2022/08/18 07:37:06;;;;;;;11.82;8.35;;;;;;;31.75;43.86;99879.66;6270517;22;20082;-71
2022/08/18 07:39:37;;;;;;;12.23;8.88;;;;;;;31.81;44.06;99874.94;6225789;22;20015;-71
2022/08/18 07:42:26;;;;;;;11.60;8.38;;;;;;;31.96;43.88;99877.66;6270831;22;20003;-71
2022/08/18 07:45:04;;;;;;;14.65;8.70;;;;;;;32.05;43.60;99876.75;6270604;22;20086;-72
2022/08/18 07:47:35;;;;;;;9.68;8.27;;;;;;;32.16;43.36;99883.09;6270510;22;20478;-71
2022/08/18 07:50:03;;;;;;;9.55;7.85;;;;;;;32.19;42.98;99880.59;6272206;22;20022;-71
2022/08/18 07:52:31;;;;;;;11.82;7.90;;;;;;;32.22;43.07;99887.50;6269056;22;20111;-71
2022/08/18 07:55:08;;;;;;;11.60;8.55;;;;;;;32.23;42.90;99887.22;6271808;22;20012;-71
2022/08/18 07:57:58;;;;;;;11.50;8.35;;;;;;;32.24;42.73;99891.66;6272323;22;20012;-71
2022/08/18 08:00:32;;;;;;;9.50;7.88;;;;;;;32.24;42.94;99891.66;6272092;22;20015;-71
2022/08/18 08:03:16;;;;;;;12.75;8.82;;;;;;;32.30;42.86;99896.06;6271416;22;20472;-71
2022/08/18 08:05:51;;;;;;;10.88;8.15;;;;;;;32.35;42.35;99898.84;6271904;22;20018;-71
2022/08/18 08:08:41;;;;;;;11.70;8.07;;;;;;;32.39;42.57;99897.16;6272013;22;20018;-72
2022/08/18 08:11:12;;;;;;;12.18;9.07;;;;;;;32.45;42.73;99892.38;6271256;22;20082;-70
2022/08/18 08:13:37;;;;;;;11.77;7.90;;;;;;;32.50;42.39;99907.06;6270139;22;20003;-71
2022/08/18 08:16:25;;;;;;;13.32;7.95;;;;;;;32.50;42.05;99904.28;6271616;22;20508;-72
2022/08/18 08:19:05;;;;;;;16.58;7.88;;;;;;;32.60;41.82;99906.19;6270678;22;20388;-72
2022/08/18 08:21:36;;;;;;;15.50;8.80;;;;;;;32.67;41.84;99917.78;6271689;22;20007;-72
2022/08/18 08:24:44;;;;;;;10.55;7.78;;;;;;;32.72;41.34;99908.59;6271933;22;20028;-72
2022/08/18 08:27:21;;;;;;;11.02;7.80;;;;;;;32.84;41.38;99918.22;6271660;22;20109;-64
2022/08/18 08:30:05;;;;;;;9.15;7.70;;;;;;;32.92;41.42;99905.69;6271627;22;20060;-65
2022/08/18 08:32:34;;;;;;;14.93;7.90;;;;;;;32.99;41.30;99918.13;6271553;22;20004;-64
2022/08/18 08:35:06;;;;;;;8.82;7.85;;;;;;;33.08;40.49;99912.78;6271304;22;20004;-65
2022/08/18 08:37:42;;;;;;;8.10;7.30;;;;;;;33.21;39.89;99914.88;6269157;22;20011;-64
2022/08/18 08:40:31;;;;;;;7.75;7.00;;;;;;;33.34;39.40;99917.81;6271504;22;20367;-65
2022/08/18 08:43:07;;;;;;;11.48;6.53;;;;;;;33.38;38.60;99907.78;6271498;22;20015;-65
2022/08/18 08:45:38;;;;;;;7.82;6.75;;;;;;;33.57;38.19;99911.50;6271193;22;20090;-65
2022/08/18 08:48:10;;;;;;;13.80;6.80;;;;;;;33.64;37.87;99914.75;6271675;22;20007;-65
2022/08/18 08:50:48;;;;;;;13.60;7.40;;;;;;;33.71;38.43;99908.81;6271014;22;20023;-66
2022/08/18 08:53:26;;;;;;;10.60;7.05;;;;;;;33.78;37.84;99900.94;6271239;22;20015;-65
2022/08/18 08:55:58;;;;;;;13.52;7.05;;;;;;;33.75;37.84;99884.84;6271301;22;20010;-65
2022/08/18 08:58:33;;;;;;;8.35;6.45;;;;;;;33.83;37.53;99895.31;6269546;22;20014;-65
2022/08/18 09:00:59;;;;;;;7.38;6.60;;;;;;;33.88;37.40;99893.31;6269246;22;20014;-65
2022/08/18 09:03:46;;;;;;;11.23;6.47;;;;;;;33.97;36.89;99888.75;6270949;22;20008;-65
2022/08/18 09:06:46;;;;;;;10.55;6.57;;;;;;;34.02;37.33;99885.09;6270968;22;20511;-65
2022/08/18 09:09:36;;;;;;;6.80;6.07;;;;;;;34.13;37.28;99881.03;6264564;22;20381;-65
2022/08/18 09:12:35;;;;;;;10.95;6.32;;;;;;;34.21;36.82;99888.72;6271428;22;20003;-65
2022/08/18 09:15:36;;;;;;;8.75;5.78;;;;;;;34.33;36.33;99877.94;6270989;22;20025;-65
2022/08/18 09:18:20;;;;;;;9.88;6.18;;;;;;;34.39;35.91;99874.84;6147298;23;20136;-65
2022/08/18 09:21:11;;;;;;;9.38;5.72;;;;;;;34.51;34.68;99882.75;6259191;22;20008;-65
2022/08/18 09:23:43;;;;;;;8.30;5.00;;;;;;;34.49;34.95;99868.28;6268038;22;20028;-65
2022/08/18 09:26:37;;;;;;;8.10;4.47;;;;;;;34.67;34.20;99877.75;6268202;22;20518;-65
2022/08/18 09:29:14;;;;;;;;;;;;;;;34.78;33.07;99877.28;6269627;22;20004;-65
2022/08/18 09:31:42;;;;;;;7.30;4.93;;;;;;;34.81;33.42;99879.47;6269875;22;19911;-65
2022/08/18 09:34:47;;;;;;;6.18;4.65;;;;;;;34.84;33.58;99880.84;6268406;22;20031;-65
2022/08/18 09:37:12;;;;;;;;;;;;;;;34.83;33.37;99874.41;6270068;22;20053;-65
2022/08/18 09:43:05;;;;;;;6.35;4.95;;;;;;;34.92;33.61;99867.06;6270288;22;20320;-65
2022/08/18 09:45:30;;;;;;;7.53;4.65;;;;;;;35.12;32.15;99869.47;6270548;22;20015;-64
2022/08/18 09:48:02;;;;;;;8.23;4.93;;;;;;;35.06;32.26;99862.34;6270906;22;20014;-64
2022/08/18 09:50:27;;;;;;;7.13;4.75;;;;;;;35.04;32.44;99875.75;6270395;22;20455;-64
2022/08/18 09:53:29;;;;;;;5.30;4.80;;;;;;;35.05;32.47;99868.22;6269001;22;20080;-64
2022/08/18 09:55:56;;;;;;;10.88;4.82;;;;;;;35.07;32.55;99861.19;6270809;22;20358;-65
2022/08/18 09:58:25;;;;;;;5.65;4.75;;;;;;;35.17;32.65;99860.19;6270694;22;20336;-64
2022/08/18 10:01:19;;;;;;;6.72;4.65;;;;;;;35.29;32.70;99861.34;6270154;22;20008;-64
2022/08/18 10:04:13;;;;;;;7.78;4.50;;;;;;;35.39;32.09;99838.03;6270331;22;19999;-65
2022/08/18 10:06:40;;;;;;;8.68;4.38;;;;;;;35.50;31.63;99842.28;6269309;22;20094;-64
2022/08/18 10:09:14;;;;;;;9.70;4.93;;;;;;;35.58;31.71;99839.59;6267991;22;20011;-65
2022/08/18 10:12:09;;;;;;;8.93;4.40;;;;;;;35.71;31.39;99832.34;6268473;22;20011;-64
2022/08/18 10:15:02;;;;;;;5.07;4.15;;;;;;;35.76;31.14;99830.31;6256624;22;20016;-65
2022/08/18 10:17:38;;;;;;;7.40;4.03;;;;;;;35.80;31.41;99833.31;6270369;22;20082;-65
2022/08/18 10:20:19;;;;;;;6.20;4.50;;;;;;;35.84;31.39;99826.78;6268547;22;20098;-65
2022/08/18 10:22:48;;;;;;;9.68;4.70;;;;;;;35.85;31.26;99817.28;6269704;22;20031;-64
2022/08/18 10:25:39;;;;;;;7.40;4.20;;;;;;;35.85;31.11;99811.69;6267952;22;20008;-65
2022/08/18 10:28:30;;;;;;;6.82;4.40;;;;;;;35.92;31.35;99814.91;6270545;22;20053;-65
2022/08/18 10:31:02;;;;;;;8.48;4.57;;;;;;;35.84;31.04;99804.47;6269686;22;20010;-64
2022/08/18 10:33:59;;;;;;;4.53;4.13;;;;;;;35.92;31.16;99819.66;6270160;22;20014;-64
2022/08/18 10:36:37;;;;;;;5.10;4.60;;;;;;;35.95;31.24;99822.63;6258568;22;20336;-65
2022/08/18 10:39:11;;;;;;;10.05;5.03;;;;;;;36.02;30.82;99819.44;6270143;22;20015;-64
2022/08/18 10:41:45;;;;;;;5.00;4.50;;;;;;;35.96;30.67;99801.97;6270499;22;20003;-64
2022/08/18 10:44:15;;;;;;;4.80;4.32;;;;;;;36.07;30.79;99811.75;6270996;22;20023;-64
2022/08/18 10:46:42;;;;;;;6.32;4.32;;;;;;;36.08;30.71;99802.22;6270505;22;20076;-64
2022/08/18 10:49:11;;;;;;;7.90;4.20;;;;;;;36.18;30.68;99817.94;6270243;22;20012;-65
2022/08/18 10:52:09;;;;;;;7.65;4.70;;;;;;;36.11;30.77;99803.59;6270233;22;20334;-65
2022/08/18 10:54:47;;;;;;;7.70;4.50;;;;;;;36.18;30.52;99817.94;6254000;22;20046;-64
2022/08/18 10:57:26;;;;;;;6.28;5.03;;;;;;;36.15;30.66;99802.63;6270263;22;20004;-65
2022/08/18 11:00:09;;;;;;;10.88;4.35;;;;;;;36.16;30.65;99812.66;6270327;22;20003;-65
2022/08/18 11:03:14;;;;;;;5.72;4.47;;;;;;;36.19;30.10;99803.66;6267799;22;20016;-64
2022/08/18 11:05:41;;;;;;;;;;;;;;;36.19;29.88;99788.84;6265125;22;20004;-65
2022/08/18 11:08:13;;;;;;;5.80;4.05;;;;;;;36.09;30.18;99769.53;6270120;22;19909;-65
2022/08/18 11:11:01;;;;;;;9.65;4.13;;;;;;;36.18;30.21;99790.84;6268142;22;20440;-64
2022/08/18 11:13:43;;;;;;;6.43;4.15;;;;;;;36.09;29.88;99766.75;6269952;22;20039;-64
2022/08/18 11:16:30;;;;;;;7.03;4.05;;;;;;;36.18;29.92;99771.28;6268084;22;20593;-64
2022/08/18 11:19:09;;;;;;;5.00;4.50;;;;;;;36.15;29.84;99766.34;6270165;22;20011;-65
2022/08/18 11:21:35;;;;;;;6.47;3.85;;;;;;;36.18;29.88;99790.00;6272552;22;19999;-65
2022/08/18 11:24:22;;;;;;;5.00;3.65;;;;;;;36.23;29.59;99773.09;6270642;22;20008;-65
2022/08/18 11:26:50;;;;;;;4.88;3.60;;;;;;;36.31;29.48;99778.81;6272409;22;20004;-65
2022/08/18 11:29:31;;;;;;;8.23;3.70;;;;;;;36.38;29.07;99770.81;6270495;22;20325;-65
2022/08/18 11:32:05;;;;;;;5.72;3.80;;;;;;;36.44;29.18;99765.91;6272404;22;20029;-65
2022/08/18 11:34:42;;;;;;;8.13;4.65;;;;;;;36.44;29.19;99760.34;6270441;22;20011;-64
2022/08/18 11:37:37;;;;;;;8.15;3.70;;;;;;;36.41;29.02;99760.97;6272023;22;20000;-64
2022/08/18 11:40:09;;;;;;;7.13;4.28;;;;;;;36.39;29.13;99757.66;6270473;22;20011;-65
2022/08/18 11:42:38;;;;;;;5.82;3.72;;;;;;;36.36;28.99;99758.28;6269903;22;20006;-65
2022/08/18 11:45:18;;;;;;;4.35;3.90;;;;;;;36.31;29.03;99750.88;6271724;22;20145;-65
2022/08/18 11:48:09;;;;;;;5.53;3.90;;;;;;;36.26;29.42;99737.03;6270173;22;20391;-64
2022/08/18 11:50:56;;;;;;;7.15;3.45;;;;;;;36.28;29.34;99733.91;6271027;22;20011;-65
2022/08/18 11:53:36;;;;;;;5.63;3.40;;;;;;;36.26;29.73;99724.97;6271814;22;20078;-65
2022/08/18 11:56:24;;;;;;;6.13;4.22;;;;;;;36.17;29.42;99722.13;6272027;22;19999;-64
2022/08/18 11:59:22;;;;;;;4.95;3.50;;;;;;;36.14;29.53;99724.75;6269967;22;20017;-65
2022/08/18 12:01:55;;;;;;;6.50;3.50;;;;;;;36.12;29.55;99715.84;6254669;22;20012;-64
2022/08/18 12:04:38;;;;;;;6.43;3.30;;;;;;;36.06;28.74;99697.56;6272038;22;20007;-64
2022/08/18 12:07:07;;;;;;;4.40;3.00;;;;;;;36.25;28.03;99724.19;6269923;22;20062;-65
2022/08/18 12:09:43;;;;;;;4.28;3.25;;;;;;;36.28;28.35;99717.16;6271687;22;20004;-65
2022/08/18 12:12:25;;;;;;;5.47;3.65;;;;;;;36.27;28.40;99702.34;6272128;22;20010;-65
2022/08/18 12:15:02;;;;;;;6.80;3.38;;;;;;;36.38;28.53;99716.91;6271754;22;20338;-65
2022/08/18 12:17:30;;;;;;;5.35;3.30;;;;;;;36.36;28.17;99694.84;6271813;22;20011;-64